createdAt,value
2023-05-05T00:01:02.377Z,3.37
2023-05-05T00:03:30.950Z,3.37
2023-05-05T00:05:59.117Z,3.43
2023-05-05T00:08:29.688Z,3.53
2023-05-05T00:10:58.282Z,3.07
2023-05-05T00:13:26.720Z,3.53
2023-05-05T00:15:56.362Z,3.83
2023-05-05T00:18:25.024Z,3.93
2023-05-05T00:20:53.634Z,4.30
2023-05-05T00:23:22.161Z,4.33
2023-05-05T00:25:52.176Z,4.87
2023-05-05T00:28:20.972Z,5.10
2023-05-05T00:30:49.395Z,5.83
2023-05-05T00:33:17.762Z,5.67
2023-05-05T00:35:46.358Z,6.07
2023-05-05T00:38:14.548Z,5.80
2023-05-05T00:40:43.000Z,5.97
2023-05-05T00:43:13.507Z,5.03
2023-05-05T00:45:47.819Z,4.97
2023-05-05T00:48:17.157Z,4.80
2023-05-05T00:50:46.407Z,4.67
2023-05-05T00:53:15.959Z,4.13
2023-05-05T00:55:44.210Z,5.30
2023-05-05T00:58:14.277Z,4.60
2023-05-05T01:00:43.056Z,4.47
2023-05-05T01:03:13.159Z,3.60
2023-05-05T01:05:57.329Z,3.70
2023-05-05T01:08:38.711Z,4.30
2023-05-05T01:11:16.158Z,4.63
2023-05-05T01:13:51.905Z,4.63
2023-05-05T01:16:24.045Z,4.33
2023-05-05T01:18:58.230Z,4.00
2023-05-05T01:21:31.467Z,3.50
2023-05-05T01:24:24.937Z,4.13
2023-05-05T01:27:05.832Z,3.90
2023-05-05T01:29:51.775Z,4.00
2023-05-05T01:32:26.988Z,3.73
2023-05-05T01:35:00.729Z,3.90
2023-05-05T01:37:33.939Z,3.63
2023-05-05T01:40:08.465Z,4.07
2023-05-05T01:42:39.474Z,4.17
2023-05-05T01:45:10.658Z,3.90
2023-05-05T01:47:46.362Z,3.90
2023-05-05T01:50:17.578Z,4.67
2023-05-05T01:52:47.900Z,5.07
2023-05-05T01:55:18.981Z,4.67
2023-05-05T01:57:50.820Z,4.30
2023-05-05T02:00:20.649Z,4.23
2023-05-05T02:02:51.540Z,4.20
2023-05-05T02:05:22.976Z,4.50
2023-05-05T02:07:52.272Z,4.07
2023-05-05T02:10:20.597Z,4.13
2023-05-05T02:12:50.198Z,4.13
2023-05-05T02:15:19.197Z,4.73
2023-05-05T02:17:49.870Z,4.47
2023-05-05T02:20:20.099Z,4.30
2023-05-05T02:22:48.536Z,5.00
2023-05-05T02:25:18.148Z,4.90
2023-05-05T02:27:49.700Z,4.10
2023-05-05T02:30:21.093Z,4.30
2023-05-05T02:32:57.535Z,4.50
2023-05-05T02:35:30.223Z,4.33
2023-05-05T02:38:02.910Z,4.20
2023-05-05T02:40:34.606Z,4.33
2023-05-05T02:43:07.914Z,4.23
2023-05-05T02:45:36.269Z,4.20
2023-05-05T02:48:06.855Z,4.20
2023-05-05T02:50:35.599Z,4.33
2023-05-05T02:53:04.098Z,4.40
2023-05-05T02:55:38.604Z,4.50
2023-05-05T02:58:09.284Z,3.87
2023-05-05T03:00:45.065Z,4.07
2023-05-05T03:03:20.435Z,4.50
2023-05-05T03:05:54.273Z,4.33
2023-05-05T03:08:29.913Z,3.80
2023-05-05T03:11:02.108Z,4.10
2023-05-05T03:13:31.400Z,4.03
2023-05-05T03:16:04.832Z,3.93
2023-05-05T03:18:37.842Z,4.33
2023-05-05T03:21:09.524Z,3.70
2023-05-05T03:23:38.194Z,3.87
2023-05-05T03:26:06.438Z,4.37
2023-05-05T03:28:34.798Z,4.00
2023-05-05T03:31:04.060Z,3.93
2023-05-05T03:33:33.723Z,3.70
2023-05-05T03:36:03.294Z,4.43
2023-05-05T03:38:32.226Z,4.17
2023-05-05T03:41:03.171Z,3.83
2023-05-05T03:43:31.834Z,3.93
2023-05-05T03:46:00.428Z,4.03
2023-05-05T03:48:28.788Z,3.90
2023-05-05T03:50:58.488Z,3.97
2023-05-05T03:53:27.187Z,3.80
2023-05-05T03:55:56.349Z,3.83
2023-05-05T03:58:24.626Z,3.60
2023-05-05T04:00:52.989Z,4.00
2023-05-05T04:03:21.568Z,3.80
2023-05-05T04:05:50.260Z,3.93
2023-05-05T04:08:19.933Z,4.37
2023-05-05T04:10:48.376Z,4.03
2023-05-05T04:13:16.804Z,4.13
2023-05-05T04:15:48.413Z,3.80
2023-05-05T04:18:16.620Z,4.10
2023-05-05T04:20:44.685Z,3.83
2023-05-05T04:23:12.889Z,4.03
2023-05-05T04:25:42.451Z,4.00
2023-05-05T04:28:10.885Z,3.80
2023-05-05T04:30:39.570Z,3.83
2023-05-05T04:33:07.769Z,4.30
2023-05-05T04:35:35.932Z,3.67
2023-05-05T04:38:04.193Z,4.00
2023-05-05T04:40:32.521Z,4.20
2023-05-05T04:43:02.171Z,3.73
2023-05-05T04:45:30.863Z,4.87
2023-05-05T04:47:58.893Z,5.03
2023-05-05T04:50:27.451Z,4.97
2023-05-05T04:52:56.577Z,4.27
2023-05-05T04:55:24.966Z,4.70
2023-05-05T04:57:53.346Z,4.97
2023-05-05T05:00:23.591Z,4.90
2023-05-05T05:02:52.695Z,6.00
2023-05-05T05:05:21.833Z,5.50
2023-05-05T05:07:50.382Z,5.70
2023-05-05T05:10:18.608Z,5.70
2023-05-05T05:12:49.206Z,5.00
2023-05-05T05:15:17.635Z,5.07
2023-05-05T05:17:47.624Z,4.97
2023-05-05T05:20:15.895Z,4.90
2023-05-05T05:22:43.990Z,5.10
2023-05-05T05:25:12.330Z,4.90
2023-05-05T05:27:43.647Z,5.00
2023-05-05T05:30:12.563Z,5.00
2023-05-05T05:32:40.959Z,5.10
2023-05-05T05:35:14.038Z,4.40
2023-05-05T05:37:42.494Z,4.73
2023-05-05T05:40:11.812Z,4.57
2023-05-05T05:42:40.195Z,4.50
2023-05-05T05:45:10.197Z,4.10
2023-05-05T05:47:38.543Z,4.00
2023-05-05T05:50:08.702Z,4.30
2023-05-05T05:52:39.118Z,4.80
2023-05-05T05:55:08.713Z,4.40
2023-05-05T05:57:37.999Z,4.97
2023-05-05T06:00:07.667Z,4.63
2023-05-05T06:02:36.407Z,3.80
2023-05-05T06:05:05.060Z,4.00
2023-05-05T06:07:33.390Z,4.07
2023-05-05T06:10:18.611Z,3.97
2023-05-05T06:12:51.609Z,4.00
2023-05-05T06:15:19.697Z,4.33
2023-05-05T06:17:47.969Z,3.73
2023-05-05T06:20:16.356Z,4.17
2023-05-05T06:22:44.673Z,4.23
2023-05-05T06:25:14.296Z,3.77
2023-05-05T06:27:42.386Z,3.97
2023-05-05T06:30:11.707Z,4.40
2023-05-05T06:32:39.914Z,3.60
2023-05-05T06:35:09.463Z,4.23
2023-05-05T06:37:37.808Z,4.27
2023-05-05T06:40:08.017Z,3.90
2023-05-05T06:42:38.151Z,3.63
2023-05-05T06:45:06.941Z,4.20
2023-05-05T06:47:35.490Z,3.80
2023-05-05T06:50:03.919Z,3.70
2023-05-05T06:52:32.020Z,4.70
2023-05-05T06:55:00.276Z,4.10
2023-05-05T06:57:28.506Z,4.03
2023-05-05T06:59:58.182Z,3.87
2023-05-05T07:02:26.966Z,4.10
2023-05-05T07:04:55.778Z,3.93
2023-05-05T07:07:24.537Z,4.07
2023-05-05T07:09:52.700Z,4.33
2023-05-05T07:12:22.133Z,4.20
2023-05-05T07:14:50.463Z,4.13
2023-05-05T07:17:20.208Z,4.20
2023-05-05T07:19:48.703Z,4.20
2023-05-05T07:22:16.811Z,3.73
2023-05-05T07:24:46.053Z,4.53
2023-05-05T07:27:14.424Z,4.50
2023-05-05T07:29:42.734Z,4.50
2023-05-05T07:32:11.120Z,4.27
2023-05-05T07:34:41.656Z,4.33
2023-05-05T07:37:09.955Z,4.77
2023-05-05T07:39:38.160Z,4.87
2023-05-05T07:42:06.904Z,4.57
2023-05-05T07:44:35.244Z,4.07
2023-05-05T07:47:03.423Z,4.47
2023-05-05T07:49:31.811Z,5.27
2023-05-05T07:52:01.869Z,5.03
2023-05-05T07:54:30.308Z,4.97
2023-05-05T07:56:58.597Z,5.10
2023-05-05T07:59:26.703Z,5.23
2023-05-05T08:01:55.103Z,5.43
2023-05-05T08:04:23.196Z,6.10
2023-05-05T08:06:51.364Z,5.37
2023-05-05T08:09:21.112Z,6.13
2023-05-05T08:11:50.687Z,6.00
2023-05-05T08:14:19.691Z,6.00
2023-05-05T08:16:48.578Z,6.00
2023-05-05T08:19:28.966Z,8.30
2023-05-05T08:22:00.035Z,6.60
2023-05-05T08:24:31.099Z,7.00
2023-05-05T08:26:59.501Z,6.37
2023-05-05T08:29:27.923Z,6.83
2023-05-05T08:31:56.421Z,6.37
2023-05-05T08:34:26.667Z,6.50
2023-05-05T08:36:55.785Z,6.63
2023-05-05T08:39:24.224Z,7.13
2023-05-05T08:41:54.154Z,6.63
2023-05-05T08:44:23.299Z,7.23
2023-05-05T08:46:52.025Z,7.03
2023-05-05T08:49:21.230Z,6.90
2023-05-05T08:51:53.518Z,7.00
2023-05-05T08:54:24.550Z,7.20
2023-05-05T08:56:55.030Z,7.30
2023-05-05T08:59:25.478Z,7.13
2023-05-05T09:01:55.529Z,7.27
2023-05-05T09:04:24.272Z,7.57
2023-05-05T09:06:52.495Z,7.45
2023-05-05T09:09:21.454Z,7.57
2023-05-05T09:11:49.861Z,7.07
2023-05-05T09:14:21.091Z,7.18
2023-05-05T09:16:49.376Z,8.13
2023-05-05T09:19:17.685Z,7.30
2023-05-05T09:21:49.967Z,8.65
2023-05-05T09:24:18.945Z,7.35
2023-05-05T09:26:49.916Z,7.05
2023-05-05T09:29:23.950Z,7.43
2023-05-05T09:32:09.921Z,6.60
2023-05-05T09:34:39.589Z,7.30
2023-05-05T09:37:07.917Z,7.80
2023-05-05T09:39:36.218Z,7.78
2023-05-05T09:42:04.381Z,7.65
2023-05-05T09:44:38.139Z,7.78
2023-05-05T09:47:18.069Z,7.03
2023-05-05T09:49:59.364Z,6.82
2023-05-05T09:52:27.766Z,6.93
2023-05-05T09:54:57.328Z,6.65
2023-05-05T09:57:30.377Z,6.97
2023-05-05T10:00:02.245Z,7.63
2023-05-05T10:02:34.965Z,6.88
2023-05-05T10:05:08.143Z,6.90
2023-05-05T10:07:37.730Z,6.35
2023-05-05T10:10:07.920Z,6.22
2023-05-05T10:12:38.072Z,6.40
2023-05-05T10:15:10.518Z,7.30
2023-05-05T10:18:02.372Z,6.30
2023-05-05T10:20:34.605Z,5.70
2023-05-05T10:23:06.975Z,5.47
2023-05-05T10:25:40.926Z,5.82
2023-05-05T10:28:15.825Z,7.15
2023-05-05T10:30:50.664Z,7.78
2023-05-05T10:33:31.177Z,7.03
2023-05-05T10:36:03.439Z,7.72
2023-05-05T10:38:31.990Z,7.75
2023-05-05T10:41:02.001Z,8.00
2023-05-05T10:43:32.192Z,7.10
2023-05-05T10:46:02.893Z,7.80
2023-05-05T10:48:40.091Z,8.60
2023-05-05T10:51:35.251Z,7.93
2023-05-05T10:54:12.601Z,7.10
2023-05-05T10:56:42.471Z,7.90
2023-05-05T10:59:40.922Z,8.55
2023-05-05T11:02:32.697Z,8.02
2023-05-05T11:05:22.865Z,8.75
2023-05-05T11:07:52.706Z,7.93
2023-05-05T11:10:23.423Z,7.55
2023-05-05T11:13:21.142Z,8.02
2023-05-05T11:15:50.873Z,8.45
2023-05-05T11:18:37.146Z,8.93
2023-05-05T11:21:18.845Z,8.27
2023-05-05T11:23:49.178Z,8.18
2023-05-05T11:26:19.042Z,8.27
2023-05-05T11:29:02.378Z,7.45
2023-05-05T11:31:32.120Z,8.40
2023-05-05T11:34:28.136Z,7.78
2023-05-05T11:37:02.941Z,6.63
2023-05-05T11:39:52.413Z,6.53
2023-05-05T11:42:27.795Z,6.13
2023-05-05T11:44:56.321Z,7.05
2023-05-05T11:47:33.873Z,7.20
2023-05-05T11:50:23.510Z,7.72
2023-05-05T11:52:52.091Z,6.82
2023-05-05T11:55:23.805Z,6.45
2023-05-05T11:57:52.585Z,6.30
2023-05-05T12:00:21.666Z,7.20
2023-05-05T12:02:58.929Z,7.00
2023-05-05T12:05:28.938Z,7.28
2023-05-05T12:08:00.290Z,7.22
2023-05-05T12:10:29.293Z,6.37
2023-05-05T12:12:58.275Z,5.57
2023-05-05T12:15:34.022Z,5.00
2023-05-05T12:18:03.221Z,3.37
2023-05-05T12:20:34.614Z,2.80
2023-05-05T12:23:04.534Z,2.67
2023-05-05T12:25:40.511Z,2.53
2023-05-05T12:28:09.948Z,2.33
2023-05-05T12:30:40.072Z,1.83
2023-05-05T12:33:09.591Z,1.90
2023-05-05T12:35:39.635Z,1.80
2023-05-05T12:38:07.765Z,2.00
2023-05-05T12:40:50.414Z,2.20
2023-05-05T12:43:30.648Z,2.10
2023-05-05T12:46:03.803Z,2.30
2023-05-05T12:48:32.094Z,2.17
2023-05-05T12:51:20.051Z,2.00
2023-05-05T12:53:49.980Z,1.90
2023-05-05T12:56:34.960Z,1.90
2023-05-05T12:59:04.449Z,1.60
2023-05-05T13:01:33.359Z,1.58
2023-05-05T13:04:09.785Z,1.92
2023-05-05T13:06:40.410Z,2.00
2023-05-05T13:09:10.002Z,2.30
2023-05-05T13:11:38.884Z,1.90
2023-05-05T13:14:08.335Z,1.70
2023-05-05T13:16:36.618Z,2.08
2023-05-05T13:19:04.844Z,1.80
2023-05-05T13:21:33.286Z,1.92
2023-05-05T13:24:19.122Z,1.73
2023-05-05T13:26:51.526Z,2.20
2023-05-05T13:29:20.191Z,2.53
2023-05-05T13:31:48.361Z,2.90
2023-05-05T13:34:16.566Z,3.10
2023-05-05T13:36:44.796Z,2.20
2023-05-05T13:39:14.662Z,2.30
2023-05-05T13:41:44.905Z,1.97
2023-05-05T13:44:13.876Z,1.90
2023-05-05T13:46:42.681Z,1.83
2023-05-05T13:49:11.502Z,1.80
2023-05-05T13:51:39.989Z,1.70
2023-05-05T13:54:08.373Z,1.60
2023-05-05T13:56:38.262Z,1.45
2023-05-05T13:59:06.651Z,1.70
2023-05-05T14:01:35.003Z,1.70
2023-05-05T14:04:05.388Z,1.55
2023-05-05T14:06:34.099Z,1.35
2023-05-05T14:09:05.970Z,1.77
2023-05-05T14:11:35.058Z,1.48
2023-05-05T14:14:07.172Z,1.50
2023-05-05T14:16:35.260Z,1.52
2023-05-05T14:19:03.387Z,1.60
2023-05-05T14:21:31.901Z,1.20
2023-05-05T14:24:00.064Z,1.20
2023-05-05T14:26:28.558Z,1.15
2023-05-05T14:28:56.682Z,1.17
2023-05-05T14:31:26.403Z,1.25
2023-05-05T14:33:54.952Z,1.20
2023-05-05T14:36:23.829Z,1.35
2023-05-05T14:38:52.075Z,1.60
2023-05-05T14:41:20.745Z,1.50
2023-05-05T14:43:48.836Z,1.17
2023-05-05T14:46:17.272Z,1.60
2023-05-05T14:48:48.874Z,1.70
2023-05-05T14:51:17.383Z,1.40
2023-05-05T14:53:46.741Z,1.40
2023-05-05T14:56:16.385Z,1.38
2023-05-05T14:58:46.170Z,1.15
2023-05-05T15:01:15.551Z,1.30
2023-05-05T15:03:44.083Z,1.00
2023-05-05T15:06:16.675Z,1.30
2023-05-05T15:08:45.014Z,1.30
2023-05-05T15:11:13.968Z,1.10
2023-05-05T15:13:42.814Z,1.38
2023-05-05T15:16:11.298Z,1.00
2023-05-05T15:18:39.543Z,1.10
2023-05-05T15:21:07.768Z,1.27
2023-05-05T15:23:37.766Z,1.50
2023-05-05T15:26:05.910Z,1.60
2023-05-05T15:28:35.228Z,1.42
2023-05-05T15:31:03.726Z,2.10
2023-05-05T15:33:32.496Z,1.42
2023-05-05T15:36:01.267Z,1.33
2023-05-05T15:38:30.914Z,1.70
2023-05-05T15:41:01.298Z,1.60
2023-05-05T15:43:30.815Z,1.35
2023-05-05T15:45:58.926Z,1.30
2023-05-05T15:48:28.149Z,1.55
2023-05-05T15:50:57.095Z,1.40
2023-05-05T15:53:27.240Z,1.67
2023-05-05T15:55:57.085Z,1.30
2023-05-05T15:58:29.284Z,1.30
2023-05-05T16:00:58.511Z,1.50
2023-05-05T16:03:26.865Z,1.20
2023-05-05T16:05:55.360Z,1.40
2023-05-05T16:08:23.540Z,1.20
2023-05-05T16:10:51.882Z,1.70
2023-05-05T16:13:20.198Z,1.52
2023-05-05T16:15:50.033Z,1.20
2023-05-05T16:18:18.994Z,1.30
2023-05-05T16:20:48.680Z,1.30
2023-05-05T16:23:18.792Z,1.20
2023-05-05T16:25:47.313Z,1.63
2023-05-05T16:28:15.864Z,1.40
2023-05-05T16:30:44.255Z,1.20
2023-05-05T16:33:15.000Z,1.20
2023-05-05T16:35:46.430Z,1.27
2023-05-05T16:38:15.649Z,1.40
2023-05-05T16:40:44.443Z,1.13
2023-05-05T16:43:13.464Z,1.20
2023-05-05T16:45:42.599Z,1.05
2023-05-05T16:48:11.772Z,1.15
2023-05-05T16:50:41.761Z,1.27
2023-05-05T16:53:11.140Z,1.17
2023-05-05T16:55:39.361Z,1.10
2023-05-05T16:58:07.571Z,1.30
2023-05-05T17:00:35.816Z,1.30
2023-05-05T17:03:03.983Z,1.13
2023-05-05T17:05:32.170Z,1.23
2023-05-05T17:08:03.281Z,1.17
2023-05-05T17:10:31.696Z,1.30
2023-05-05T17:12:59.920Z,1.48
2023-05-05T17:15:28.059Z,1.67
2023-05-05T17:17:57.322Z,1.60
2023-05-05T17:20:25.705Z,2.08
2023-05-05T17:22:54.163Z,3.05
2023-05-05T17:25:25.881Z,3.90
2023-05-05T17:27:54.012Z,4.40
2023-05-05T17:30:22.355Z,4.78
2023-05-05T17:32:50.851Z,3.70
2023-05-05T17:35:19.512Z,3.40
2023-05-05T17:37:47.986Z,2.67
2023-05-05T17:40:16.429Z,3.27
2023-05-05T17:42:49.796Z,2.90
2023-05-05T17:45:18.229Z,2.70
2023-05-05T17:47:46.652Z,2.63
2023-05-05T17:50:15.139Z,2.42
2023-05-05T17:52:45.228Z,2.30
2023-05-05T17:55:13.539Z,1.77
2023-05-05T17:57:41.903Z,1.90
2023-05-05T18:00:13.934Z,1.80
2023-05-05T18:05:11.267Z,1.90
2023-05-05T18:07:39.898Z,2.30
2023-05-05T18:10:10.769Z,2.40
2023-05-05T18:12:38.939Z,2.27
2023-05-05T18:15:09.142Z,2.27
2023-05-05T18:17:39.180Z,2.40
2023-05-05T18:20:08.801Z,2.17
2023-05-05T18:22:37.397Z,2.60
2023-05-05T18:25:08.013Z,2.60
2023-05-05T18:27:37.698Z,2.50
2023-05-05T18:30:07.153Z,2.80
2023-05-05T18:32:37.678Z,2.63
2023-05-05T18:35:08.995Z,3.30
2023-05-05T18:37:37.191Z,3.10
2023-05-05T18:40:06.412Z,2.63
2023-05-05T18:42:34.858Z,2.80
2023-05-05T18:45:03.002Z,2.97
2023-05-05T18:47:31.647Z,2.40
2023-05-05T18:50:00.002Z,2.10
2023-05-05T18:52:29.547Z,2.60
2023-05-05T18:54:59.872Z,3.00
2023-05-05T18:57:28.324Z,2.73
2023-05-05T18:59:56.516Z,2.77
2023-05-05T19:02:25.037Z,3.17
2023-05-05T19:04:53.845Z,3.20
2023-05-05T19:07:34.328Z,4.00
2023-05-05T19:10:07.045Z,4.23
2023-05-05T19:12:35.368Z,4.03
2023-05-05T19:15:10.116Z,4.23
2023-05-05T19:17:38.669Z,4.07
2023-05-05T19:20:09.030Z,4.27
2023-05-05T19:22:37.467Z,3.80
2023-05-05T19:25:08.440Z,3.13
2023-05-05T19:27:37.125Z,4.27
2023-05-05T19:30:05.959Z,3.50
2023-05-05T19:32:34.560Z,4.10
2023-05-05T19:35:03.109Z,4.33
2023-05-05T19:37:31.502Z,4.33
2023-05-05T19:39:59.863Z,3.73
2023-05-05T19:42:30.154Z,3.73
2023-05-05T19:44:58.844Z,4.03
2023-05-05T19:47:28.294Z,3.93
2023-05-05T19:49:57.016Z,4.13
2023-05-05T19:52:25.471Z,4.80
2023-05-05T19:54:53.881Z,4.20
2023-05-05T19:57:22.335Z,4.33
2023-05-05T19:59:52.162Z,4.20
2023-05-05T20:02:22.225Z,3.80
2023-05-05T20:04:51.859Z,3.63
2023-05-05T20:07:20.947Z,3.57
2023-05-05T20:09:49.862Z,4.27
2023-05-05T20:12:20.077Z,4.60
2023-05-05T20:14:53.496Z,4.70
2023-05-05T20:17:24.257Z,5.03
2023-05-05T20:19:52.737Z,5.20
2023-05-05T20:22:21.297Z,5.70
2023-05-05T20:24:50.897Z,5.77
2023-05-05T20:27:19.444Z,6.10
2023-05-05T20:29:48.460Z,5.93
2023-05-05T20:32:17.564Z,5.93
2023-05-05T20:34:47.451Z,6.30
2023-05-05T20:37:15.919Z,6.30
2023-05-05T20:39:44.406Z,6.77
2023-05-05T20:42:12.718Z,6.30
2023-05-05T20:44:42.288Z,6.43
2023-05-05T20:47:12.363Z,7.27
2023-05-05T20:49:40.748Z,6.80
2023-05-05T20:52:10.963Z,7.30
2023-05-05T20:54:40.393Z,6.60
2023-05-05T20:57:09.286Z,6.73
2023-05-05T20:59:37.472Z,7.10
2023-05-05T21:02:05.954Z,6.73
2023-05-05T21:04:34.556Z,6.77
2023-05-05T21:07:03.059Z,6.70
2023-05-05T21:09:35.420Z,6.90
2023-05-05T21:12:03.561Z,7.00
2023-05-05T21:14:31.848Z,6.33
2023-05-05T21:17:00.476Z,5.90
2023-05-05T21:19:28.929Z,5.17
2023-05-05T21:21:59.459Z,4.30
2023-05-05T21:24:28.237Z,4.20
2023-05-05T21:26:57.681Z,4.37
2023-05-05T21:29:26.137Z,4.40
2023-05-05T21:31:54.811Z,4.80
2023-05-05T21:34:23.218Z,5.00
2023-05-05T21:36:51.621Z,5.10
2023-05-05T21:39:19.834Z,5.23
2023-05-05T21:41:48.250Z,5.37
2023-05-05T21:44:17.911Z,4.93
2023-05-05T21:46:46.336Z,5.93
2023-05-05T21:49:15.593Z,5.10
2023-05-05T21:51:44.526Z,5.00
2023-05-05T21:54:12.838Z,4.53
2023-05-05T21:56:42.748Z,4.80
2023-05-05T21:59:11.318Z,5.00
2023-05-05T22:01:43.578Z,4.70
2023-05-05T22:04:11.966Z,5.37
2023-05-05T22:06:40.436Z,5.30
2023-05-05T22:09:08.795Z,4.90
2023-05-05T22:11:37.234Z,5.50
2023-05-05T22:14:05.225Z,5.47
2023-05-05T22:16:33.530Z,5.07
2023-05-05T22:19:03.627Z,5.30
2023-05-05T22:21:32.013Z,5.00
2023-05-05T22:24:00.627Z,5.10
2023-05-05T22:26:28.762Z,5.20
2023-05-05T22:28:58.676Z,4.30
2023-05-05T22:31:27.093Z,4.67
2023-05-05T22:33:55.845Z,4.60
2023-05-05T22:36:26.924Z,4.70
2023-05-05T22:38:55.131Z,4.53
2023-05-05T22:41:23.508Z,4.53
2023-05-05T22:43:51.674Z,4.80
2023-05-05T22:46:20.341Z,4.60
2023-05-05T22:48:49.280Z,4.57
2023-05-05T22:51:18.260Z,4.33
2023-05-05T22:53:48.427Z,5.30
2023-05-05T22:56:16.934Z,4.63
2023-05-05T22:58:46.677Z,4.60
2023-05-05T23:01:14.867Z,4.07
2023-05-05T23:03:43.348Z,3.87
2023-05-05T23:06:11.725Z,4.13
2023-05-05T23:08:40.242Z,4.43
2023-05-05T23:11:10.371Z,4.27
2023-05-05T23:13:38.665Z,3.90
2023-05-05T23:16:09.899Z,4.03
2023-05-05T23:18:39.038Z,3.60
2023-05-05T23:21:07.789Z,2.97
2023-05-05T23:23:36.032Z,3.43
2023-05-05T23:26:04.565Z,3.00
2023-05-05T23:28:34.905Z,3.00
2023-05-05T23:31:03.256Z,3.00
2023-05-05T23:33:31.788Z,3.30
2023-05-05T23:36:00.104Z,3.30
2023-05-05T23:38:28.417Z,3.50
2023-05-05T23:40:56.851Z,3.50
2023-05-05T23:43:28.194Z,3.50
2023-05-05T23:45:59.385Z,3.70
2023-05-05T23:48:29.242Z,3.87
2023-05-05T23:50:57.554Z,3.13
2023-05-05T23:53:26.215Z,3.23
2023-05-05T23:55:55.139Z,3.00
2023-05-05T23:58:23.488Z,3.00
